Time;durP1;ratioP1;P1;durP2;ratioP2;P2;SDS_P1;SDS_P2;PMS_P1;PMS_P2;Temp;Humidity;BMP_temperature;BMP_pressure;BME280_temperature;BME280_humidity;BME280_pressure;Samples;Min_cycle;Max_cycle;Signal;HPM_P1;HPM_P2
2022/12/24 00:00:59;;;;;;;2.67;1.40;;;14.30;73.90;;;;;;5067977;28;20056;-20
2022/12/24 00:03:25;;;;;;;2.38;1.20;;;14.30;73.80;;;;;;5068457;28;20497;-25
2022/12/24 00:05:50;;;;;;;1.80;1.38;;;14.30;73.80;;;;;;5067280;28;20045;-20
2022/12/24 00:08:16;;;;;;;2.13;1.33;;;14.30;74.60;;;;;;5068246;28;20041;-26
2022/12/24 00:10:42;;;;;;;2.42;1.60;;;14.30;73.90;;;;;;5066961;28;20397;-20
2022/12/24 00:13:08;;;;;;;3.67;1.25;;;14.30;73.80;;;;;;5068366;28;20036;-21
2022/12/24 00:15:33;;;;;;;2.88;1.85;;;14.30;73.90;;;;;;5067141;28;20087;-20
2022/12/24 00:17:59;;;;;;;1.77;1.35;;;14.20;73.80;;;;;;5067861;28;20394;-20
2022/12/24 00:20:24;;;;;;;3.17;1.60;;;14.30;73.90;;;;;;5083724;28;20046;-23
2022/12/24 00:22:50;;;;;;;2.28;1.20;;;14.30;73.90;;;;;;5067101;28;20040;-24
2022/12/24 00:25:15;;;;;;;3.47;1.50;;;14.20;73.60;;;;;;5066573;28;20561;-20
2022/12/24 00:27:41;;;;;;;3.00;1.40;;;14.30;73.80;;;;;;5065983;28;20052;-25
2022/12/24 00:30:07;;;;;;;4.95;1.27;;;14.30;73.90;;;;;;5067648;28;20036;-20
2022/12/24 00:32:33;;;;;;;3.80;1.70;;;14.30;73.70;;;;;;5068117;28;20043;-20
2022/12/24 00:34:58;;;;;;;2.92;1.50;;;14.20;73.90;;;;;;5066893;28;20067;-20
2022/12/24 00:37:24;;;;;;;2.58;1.45;;;14.20;73.80;;;;;;5083748;28;20048;-20
2022/12/24 00:39:50;;;;;;;2.28;1.10;;;14.30;73.80;;;;;;5069199;28;20044;-20
2022/12/24 00:42:15;;;;;;;2.50;1.02;;;14.30;74.00;;;;;;5066581;28;20568;-20
2022/12/24 00:44:41;;;;;;;2.53;1.25;;;14.20;73.90;;;;;;5064831;28;20048;-20
2022/12/24 00:47:06;;;;;;;1.90;1.23;;;14.30;74.00;;;;;;5067798;28;20072;-19
2022/12/24 00:49:33;;;;;;;1.73;1.13;;;14.30;74.00;;;;;;5067852;28;20043;-20
2022/12/24 00:51:59;;;;;;;2.70;1.23;;;14.30;73.90;;;;;;5065978;28;20044;-24
2022/12/24 00:54:24;;;;;;;4.10;1.58;;;14.30;74.00;;;;;;5065657;28;20139;-34
2022/12/24 00:56:50;;;;;;;1.85;1.27;;;14.20;73.90;;;;;;5066262;28;20040;-49
2022/12/24 00:59:15;;;;;;;2.38;1.50;;;14.30;73.90;;;;;;5067053;28;20029;-54
2022/12/24 01:01:41;;;;;;;3.30;1.60;;;14.30;74.00;;;;;;5066678;28;20072;-47
2022/12/24 01:06:51;;;;;;;1.80;1.35;;;14.20;74.00;;;;;;5067025;28;20052;-56
2022/12/24 01:09:16;;;;;;;1.83;1.20;;;14.30;73.90;;;;;;5067675;28;20029;-60
2022/12/24 01:11:42;;;;;;;3.10;1.45;;;14.30;74.00;;;;;;5066893;28;20497;-59
2022/12/24 01:14:08;;;;;;;1.88;1.17;;;14.30;74.00;;;;;;5067227;28;20028;-58
2022/12/24 01:16:33;;;;;;;2.30;1.52;;;14.20;74.10;;;;;;5067385;28;20051;-61
2022/12/24 01:18:59;;;;;;;2.33;1.25;;;14.30;74.10;;;;;;5067112;28;20033;-58
2022/12/24 01:21:24;;;;;;;2.30;1.25;;;14.20;74.00;;;;;;5066551;28;20497;-52
2022/12/24 01:23:51;;;;;;;2.38;1.17;;;14.20;74.00;;;;;;5066941;28;20095;-58
2022/12/24 01:26:16;;;;;;;3.72;1.55;;;14.20;74.00;;;;;;5067184;28;20059;-57
2022/12/24 01:28:42;;;;;;;2.53;1.58;;;14.20;73.80;;;;;;5067856;28;20520;-57
2022/12/24 01:31:16;;;;;;;2.45;1.30;;;14.30;74.00;;;;;;5070554;28;20044;-57
2022/12/24 01:33:41;;;;;;;3.55;1.50;;;14.20;74.00;;;;;;5070589;28;20100;-49
2022/12/24 01:36:07;;;;;;;2.50;1.33;;;14.20;74.00;;;;;;5070638;28;20075;-62
2022/12/24 01:38:33;;;;;;;2.88;1.25;;;14.20;73.90;;;;;;5070978;28;20079;-55
2022/12/24 01:43:43;;;;;;;2.03;1.38;;;14.20;73.80;;;;;;5067724;28;20051;-57
2022/12/24 01:46:19;;;;;;;2.00;1.40;;;14.20;74.00;;;;;;5071253;28;20048;-52
2022/12/24 01:49:05;;;;;;;1.90;0.88;;;14.20;74.00;;;;;;5069468;28;20048;-47
2022/12/24 01:51:37;;;;;;;3.40;1.90;;;14.20;73.90;;;;;;5071090;28;20048;-58
2022/12/24 01:54:10;;;;;;;2.00;1.55;;;14.20;74.00;;;;;;5068888;28;21206;-53
2022/12/24 01:56:37;;;;;;;4.75;1.50;;;14.20;73.90;;;;;;5070187;28;20101;-55
2022/12/24 01:59:05;;;;;;;1.95;1.23;;;14.20;73.80;;;;;;5069149;28;20044;-58
2022/12/24 02:01:31;;;;;;;2.17;1.48;;;14.20;73.90;;;;;;5085668;28;20040;-52
2022/12/24 02:03:56;;;;;;;2.88;1.35;;;14.20;74.00;;;;;;5070970;28;20114;-54
2022/12/24 02:06:22;;;;;;;2.13;1.30;;;14.20;74.00;;;;;;5085505;28;20048;-50
2022/12/24 02:08:48;;;;;;;1.77;1.30;;;14.20;74.00;;;;;;5081273;28;20044;-52
2022/12/24 02:11:20;;;;;;;1.60;1.00;;;14.20;74.10;;;;;;5070449;28;20056;-57
2022/12/24 02:13:51;;;;;;;1.38;1.10;;;14.20;74.20;;;;;;5068963;28;20067;-49
2022/12/24 02:16:25;;;;;;;2.10;1.33;;;14.20;73.90;;;;;;5086001;28;20496;-49
2022/12/24 02:19:08;;;;;;;2.35;1.10;;;14.20;74.00;;;;;;5067599;28;20068;-45
2022/12/24 02:21:44;;;;;;;1.65;1.05;;;14.20;74.00;;;;;;5063487;28;20048;-49
2022/12/24 02:24:22;;;;;;;3.35;1.60;;;14.20;74.10;;;;;;5067801;28;20515;-47
2022/12/24 02:26:59;;;;;;;2.38;1.60;;;14.20;73.80;;;;;;5070273;28;20135;-59
2022/12/24 02:29:47;;;;;;;2.10;1.60;;;14.20;74.00;;;;;;5070383;28;20489;-54
2022/12/24 02:32:16;;;;;;;2.65;1.33;;;14.20;74.00;;;;;;5070616;28;20052;-63
2022/12/24 02:34:54;;;;;;;1.65;1.10;;;14.20;74.10;;;;;;5085463;28;20054;-27
2022/12/24 02:37:24;;;;;;;2.30;1.25;;;14.20;74.10;;;;;;5065508;28;20567;-60
2022/12/24 02:40:12;;;;;;;2.47;1.30;;;14.30;73.90;;;;;;5066904;28;20570;-54
2022/12/24 02:42:43;;;;;;;2.13;1.20;;;14.20;73.90;;;;;;5067560;28;20044;-54
2022/12/24 02:45:20;;;;;;;3.15;1.55;;;14.20;73.90;;;;;;5067784;28;20413;-54
2022/12/24 02:47:46;;;;;;;3.42;1.35;;;14.20;74.10;;;;;;5067409;28;20066;-52
2022/12/24 02:50:13;;;;;;;2.15;1.35;;;14.30;74.90;;;;;;5084824;28;20044;-58
2022/12/24 02:52:40;;;;;;;1.73;1.25;;;14.20;74.00;;;;;;5070049;28;20040;-59
2022/12/24 02:55:43;;;;;;;1.60;1.20;;;14.30;74.00;;;;;;5069593;28;20470;-55
2022/12/24 02:58:28;;;;;;;2.42;1.58;;;14.30;74.20;;;;;;5068777;28;20109;-50
2022/12/24 03:01:15;;;;;;;1.65;1.10;;;14.20;74.00;;;;;;5067476;28;20037;-53
2022/12/24 03:04:05;;;;;;;2.65;1.23;;;14.20;74.00;;;;;;5069691;28;20039;-50
2022/12/24 03:07:02;;;;;;;3.78;1.48;;;14.30;74.00;;;;;;5066186;28;20119;-48
2022/12/24 03:09:40;;;;;;;1.63;1.10;;;14.30;74.20;;;;;;5067487;28;20056;-47
2022/12/24 03:12:09;;;;;;;1.77;1.08;;;14.20;74.10;;;;;;5069088;28;20074;-54
2022/12/24 03:14:35;;;;;;;2.78;1.17;;;14.20;73.90;;;;;;5069300;28;20041;-60
2022/12/24 03:17:01;;;;;;;2.30;1.25;;;14.20;74.00;;;;;;5083699;28;20049;-42
2022/12/24 03:19:26;;;;;;;3.40;1.10;;;14.30;74.20;;;;;;5068002;28;20044;-61
2022/12/24 03:21:53;;;;;;;2.28;1.40;;;14.20;74.00;;;;;;5083794;28;20115;-51
2022/12/24 03:24:19;;;;;;;3.75;1.35;;;14.20;74.10;;;;;;5066615;28;20609;-55
2022/12/24 03:26:44;;;;;;;2.08;1.13;;;14.30;74.40;;;;;;5083964;28;20051;-57
2022/12/24 03:29:10;;;;;;;2.70;1.38;;;14.30;74.10;;;;;;5084242;28;20123;-52
2022/12/24 03:31:59;;;;;;;1.58;1.00;;;14.20;74.00;;;;;;5068772;28;20497;-59
2022/12/24 03:34:24;;;;;;;1.92;1.00;;;14.30;74.40;;;;;;5068861;28;20037;-50
2022/12/24 03:36:50;;;;;;;1.88;1.33;;;14.20;73.90;;;;;;5068467;28;20032;-57
2022/12/24 03:39:16;;;;;;;2.88;1.20;;;14.20;74.20;;;;;;5069237;28;20078;-57
2022/12/24 03:41:41;;;;;;;2.72;1.25;;;14.20;74.00;;;;;;5068877;28;20082;-57
2022/12/24 03:44:07;;;;;;;2.65;1.10;;;14.20;74.30;;;;;;5068314;28;22352;-59
2022/12/24 03:46:32;;;;;;;2.15;1.15;;;14.20;74.10;;;;;;5068948;28;20032;-62
2022/12/24 03:48:58;;;;;;;1.95;1.17;;;14.20;74.00;;;;;;5067673;28;20032;-57
2022/12/24 03:51:24;;;;;;;1.55;0.93;;;14.20;74.00;;;;;;5068380;28;20040;-50
2022/12/24 03:53:53;;;;;;;2.33;1.10;;;14.30;74.10;;;;;;5069138;28;20036;-61
2022/12/24 03:56:19;;;;;;;1.58;1.00;;;14.20;74.10;;;;;;5068642;28;20033;-53
2022/12/24 03:58:45;;;;;;;1.58;1.00;;;14.20;74.00;;;;;;5068365;28;20090;-57
2022/12/24 04:01:10;;;;;;;1.38;1.05;;;14.20;74.00;;;;;;5066924;28;20041;-51
2022/12/24 04:03:36;;;;;;;1.63;1.05;;;14.20;74.10;;;;;;5067683;28;20038;-49
2022/12/24 04:06:12;;;;;;;2.60;1.50;;;14.30;74.40;;;;;;5066979;28;20072;-59
2022/12/24 04:08:38;;;;;;;1.30;0.93;;;14.20;73.90;;;;;;5068263;28;20064;-59
2022/12/24 04:11:04;;;;;;;1.40;1.20;;;14.20;74.00;;;;;;5067902;28;20137;-55
2022/12/24 04:13:29;;;;;;;2.30;1.23;;;14.20;73.80;;;;;;5067315;28;20040;-54
2022/12/24 04:15:58;;;;;;;2.22;0.98;;;14.20;74.30;;;;;;5068050;28;20043;-47
2022/12/24 04:18:24;;;;;;;1.88;1.20;;;14.20;73.70;;;;;;5068404;28;20719;-53
2022/12/24 04:20:49;;;;;;;1.65;0.90;;;14.20;74.10;;;;;;5066789;28;20131;-41
2022/12/24 04:23:15;;;;;;;1.70;0.80;;;14.20;73.90;;;;;;5065272;28;20074;-39
2022/12/24 04:25:40;;;;;;;2.25;1.25;;;14.30;74.10;;;;;;5064893;28;20072;-49
2022/12/24 04:28:06;;;;;;;1.77;1.17;;;14.20;74.00;;;;;;5067057;28;20511;-59
2022/12/24 04:30:32;;;;;;;1.92;1.08;;;14.20;73.80;;;;;;5067854;28;20036;-61
2022/12/24 04:32:57;;;;;;;1.15;0.98;;;14.20;73.90;;;;;;5066806;28;20051;-61
2022/12/24 04:35:23;;;;;;;1.35;0.80;;;14.20;74.20;;;;;;5067296;28;20501;-54
2022/12/24 04:37:48;;;;;;;1.30;0.90;;;14.20;74.10;;;;;;5068662;28;20036;-55
2022/12/24 04:40:14;;;;;;;1.80;1.00;;;14.20;74.10;;;;;;5066819;28;20036;-51
2022/12/24 04:42:39;;;;;;;1.35;0.85;;;14.20;74.10;;;;;;5067244;28;20044;-51
2022/12/24 04:45:05;;;;;;;1.05;0.95;;;14.30;74.00;;;;;;5067189;28;20123;-53
2022/12/24 04:47:31;;;;;;;1.75;1.05;;;14.20;74.20;;;;;;5066873;28;20048;-57
2022/12/24 04:49:57;;;;;;;1.45;1.10;;;14.20;74.00;;;;;;5067105;28;20413;-59
2022/12/24 04:52:22;;;;;;;1.38;1.10;;;14.20;74.10;;;;;;5067270;28;20090;-62
2022/12/24 04:54:48;;;;;;;0.85;0.57;;;14.20;74.00;;;;;;5065069;28;21712;-61
2022/12/24 04:57:13;;;;;;;1.02;0.90;;;14.20;74.20;;;;;;5067459;28;20125;-57
2022/12/24 04:59:39;;;;;;;0.77;0.77;;;14.20;73.90;;;;;;5065926;28;20043;-54
2022/12/24 05:02:04;;;;;;;1.63;0.93;;;14.20;74.00;;;;;;5066029;28;20135;-52
2022/12/24 05:04:30;;;;;;;1.27;0.77;;;14.20;74.00;;;;;;5067047;28;20041;-47
2022/12/24 05:06:56;;;;;;;1.13;0.70;;;14.30;73.90;;;;;;5066460;28;20572;-53
2022/12/24 05:09:22;;;;;;;2.55;0.88;;;14.20;73.60;;;;;;5067732;28;20054;-48
2022/12/24 05:11:47;;;;;;;2.08;0.70;;;14.30;74.10;;;;;;5067840;28;20452;-58
2022/12/24 05:14:13;;;;;;;1.20;0.80;;;14.20;74.10;;;;;;5067121;28;20042;-59
2022/12/24 05:16:38;;;;;;;1.60;0.80;;;14.20;73.70;;;;;;5067507;28;20090;-62
2022/12/24 05:19:04;;;;;;;1.65;0.80;;;14.30;74.20;;;;;;5066047;28;20697;-59
2022/12/24 05:21:29;;;;;;;1.17;0.93;;;14.20;74.30;;;;;;5067691;28;20051;-53
2022/12/24 05:26:49;;;;;;;0.73;0.50;;;14.20;74.00;;;;;;5079881;28;20528;-59
2022/12/24 05:29:15;;;;;;;0.70;0.32;;;14.20;74.00;;;;;;5079208;28;20048;-58
2022/12/24 05:31:41;;;;;;;1.20;0.80;;;14.20;74.20;;;;;;5066562;28;20066;-51
2022/12/24 05:34:07;;;;;;;1.23;0.60;;;14.20;74.00;;;;;;5066941;28;20064;-55
2022/12/24 05:36:32;;;;;;;0.98;0.57;;;14.20;73.90;;;;;;5067576;28;20439;-59
2022/12/24 05:38:58;;;;;;;1.20;0.70;;;14.20;74.30;;;;;;5066775;28;20048;-56
2022/12/24 05:41:24;;;;;;;1.20;0.80;;;14.20;74.40;;;;;;5066649;28;20444;-58
2022/12/24 05:43:50;;;;;;;1.55;0.90;;;14.20;74.10;;;;;;5066978;28;20074;-60
2022/12/24 05:46:17;;;;;;;1.55;0.95;;;14.20;74.20;;;;;;5066087;28;20048;-57
2022/12/24 05:48:43;;;;;;;0.98;0.50;;;14.20;74.20;;;;;;5066660;28;20048;-55
2022/12/24 05:51:10;;;;;;;2.05;0.70;;;14.20;74.20;;;;;;5066611;28;20044;-59
2022/12/24 05:53:36;;;;;;;1.10;0.68;;;14.20;74.10;;;;;;5081290;28;20032;-48
2022/12/24 05:56:21;;;;;;;0.90;0.60;;;14.20;74.20;;;;;;5066605;28;20066;-58
2022/12/24 05:58:46;;;;;;;1.73;1.10;;;14.20;74.20;;;;;;5066660;28;20072;-59
2022/12/24 06:01:12;;;;;;;1.50;0.75;;;14.20;74.40;;;;;;5066641;28;20064;-58
2022/12/24 06:03:38;;;;;;;1.13;0.73;;;14.20;74.20;;;;;;5067439;28;20093;-58
2022/12/24 06:06:07;;;;;;;1.10;0.70;;;14.20;74.10;;;;;;5066644;28;20044;-57
2022/12/24 06:08:33;;;;;;;0.98;0.52;;;14.20;74.50;;;;;;5064545;28;20424;-51
2022/12/24 06:11:00;;;;;;;1.67;0.73;;;14.20;73.90;;;;;;5066580;28;20135;-58
2022/12/24 06:13:26;;;;;;;1.42;0.50;;;14.20;73.80;;;;;;5067238;28;20064;-45
2022/12/24 06:15:58;;;;;;;1.10;0.60;;;14.20;73.90;;;;;;5069586;28;20098;-48
2022/12/24 06:18:24;;;;;;;1.02;0.70;;;14.20;74.00;;;;;;5068821;28;20059;-49
2022/12/24 06:20:53;;;;;;;0.73;0.52;;;14.30;74.00;;;;;;5070788;28;20048;-47
2022/12/24 06:23:19;;;;;;;1.20;0.85;;;14.20;73.90;;;;;;5069523;28;20040;-52
2022/12/24 06:25:45;;;;;;;0.93;0.50;;;14.30;73.90;;;;;;5067526;28;20549;-45
2022/12/24 06:28:10;;;;;;;1.25;0.90;;;14.20;74.40;;;;;;5064762;28;20056;-43
2022/12/24 06:30:36;;;;;;;1.27;0.90;;;14.20;74.10;;;;;;5070093;28;20404;-61
2022/12/24 06:33:01;;;;;;;0.68;0.60;;;14.20;74.20;;;;;;5068061;28;20040;-57
2022/12/24 06:35:27;;;;;;;1.00;0.50;;;14.20;74.40;;;;;;5070341;28;20043;-62
2022/12/24 06:37:53;;;;;;;0.82;0.55;;;14.20;74.80;;;;;;5070413;28;20074;-59
2022/12/24 06:40:18;;;;;;;1.08;0.82;;;14.20;74.10;;;;;;5067602;28;20052;-54
2022/12/24 06:42:44;;;;;;;1.08;0.63;;;14.20;74.00;;;;;;5070014;28;20044;-53
2022/12/24 06:45:10;;;;;;;0.98;0.65;;;14.20;73.80;;;;;;5069388;28;20060;-49
2022/12/24 06:47:35;;;;;;;1.50;0.80;;;14.20;73.80;;;;;;5068776;28;20044;-51
2022/12/24 06:50:01;;;;;;;1.95;0.70;;;14.20;74.20;;;;;;5069576;28;20028;-53
2022/12/24 06:52:26;;;;;;;0.77;0.63;;;14.20;74.10;;;;;;5069854;28;20578;-55
2022/12/24 06:54:52;;;;;;;0.88;0.82;;;14.20;74.00;;;;;;5070282;28;20489;-47
2022/12/24 06:57:17;;;;;;;1.10;0.60;;;14.20;73.90;;;;;;5069572;28;20045;-58
2022/12/24 06:59:43;;;;;;;0.43;0.43;;;14.20;74.20;;;;;;5069138;28;20139;-59
2022/12/24 07:02:09;;;;;;;1.92;0.60;;;14.20;74.00;;;;;;5069081;28;20393;-60
2022/12/24 07:04:34;;;;;;;2.67;0.80;;;14.20;74.30;;;;;;5069013;28;20098;-54
2022/12/24 07:07:00;;;;;;;2.30;0.80;;;14.20;74.10;;;;;;5068512;28;20067;-57
2022/12/24 07:09:25;;;;;;;1.20;0.70;;;14.20;74.10;;;;;;5069523;28;20516;-57
2022/12/24 07:11:51;;;;;;;0.93;0.50;;;14.20;74.00;;;;;;5070368;28;20040;-58
2022/12/24 07:14:17;;;;;;;1.02;0.77;;;14.20;74.00;;;;;;5068756;28;20040;-57
2022/12/24 07:16:42;;;;;;;0.90;0.60;;;14.20;74.30;;;;;;5068982;28;20040;-59
2022/12/24 07:19:08;;;;;;;1.50;0.95;;;14.20;74.50;;;;;;5069028;28;20409;-62
2022/12/24 07:21:33;;;;;;;0.82;0.70;;;14.20;74.20;;;;;;5068046;28;20179;-63
2022/12/24 07:23:59;;;;;;;1.23;0.85;;;14.20;74.10;;;;;;5069031;28;20509;-56
2022/12/24 07:26:24;;;;;;;0.90;0.70;;;14.20;74.10;;;;;;5068981;28;20131;-58
2022/12/24 07:28:50;;;;;;;1.05;0.60;;;14.20;74.10;;;;;;5065433;28;20029;-53
2022/12/24 07:31:15;;;;;;;0.95;0.80;;;14.20;73.90;;;;;;5068958;28;20409;-59
2022/12/24 07:33:41;;;;;;;0.93;0.80;;;14.20;74.40;;;;;;5069484;28;20037;-54
2022/12/24 07:36:07;;;;;;;1.73;0.70;;;14.20;74.30;;;;;;5068238;28;20044;-50
2022/12/24 07:38:33;;;;;;;0.98;0.68;;;14.20;73.90;;;;;;5069037;28;20131;-60
2022/12/24 07:40:59;;;;;;;0.90;0.65;;;14.20;74.20;;;;;;5069367;28;20119;-53
2022/12/24 07:43:25;;;;;;;0.60;0.40;;;14.20;74.00;;;;;;5068100;28;20529;-60
2022/12/24 07:45:54;;;;;;;0.90;0.70;;;14.20;73.70;;;;;;5068289;28;20098;-56
2022/12/24 07:48:19;;;;;;;0.70;0.52;;;14.20;74.20;;;;;;5065599;28;20432;-62
2022/12/24 07:50:45;;;;;;;1.38;0.55;;;14.20;74.00;;;;;;5069289;28;20054;-51
2022/12/24 07:53:10;;;;;;;1.33;0.80;;;14.20;74.30;;;;;;5083146;28;20071;-59
2022/12/24 07:55:36;;;;;;;0.90;0.60;;;14.20;74.20;;;;;;5067368;28;20583;-56
2022/12/24 07:58:02;;;;;;;0.98;0.65;;;14.20;74.30;;;;;;5067685;28;20033;-58
2022/12/24 08:00:27;;;;;;;0.70;0.50;;;14.20;74.40;;;;;;5069914;28;20040;-50
2022/12/24 08:02:53;;;;;;;0.63;0.60;;;14.20;74.00;;;;;;5068631;28;20171;-56
2022/12/24 08:05:18;;;;;;;0.82;0.70;;;14.20;74.00;;;;;;5067904;28;20566;-54
2022/12/24 08:07:44;;;;;;;1.17;0.70;;;14.20;74.40;;;;;;5068781;28;20033;-52
2022/12/24 08:10:09;;;;;;;0.80;0.60;;;14.20;74.00;;;;;;5067385;28;20412;-57
2022/12/24 08:12:35;;;;;;;0.95;0.85;;;14.20;73.90;;;;;;5067887;28;20039;-55
2022/12/24 08:15:01;;;;;;;0.82;0.70;;;14.20;74.00;;;;;;5069021;28;20604;-43
2022/12/24 08:17:26;;;;;;;0.77;0.73;;;14.20;73.90;;;;;;5067296;28;20075;-54
2022/12/24 08:19:52;;;;;;;1.45;0.90;;;14.20;74.00;;;;;;5062919;28;20044;-47
2022/12/24 08:22:17;;;;;;;0.98;0.80;;;14.20;74.30;;;;;;5066731;28;20413;-55
2022/12/24 08:24:43;;;;;;;0.98;0.50;;;14.20;74.00;;;;;;5068832;28;20117;-48
2022/12/24 08:27:08;;;;;;;0.90;0.57;;;14.20;73.80;;;;;;5067673;28;20039;-50
2022/12/24 08:29:34;;;;;;;0.75;0.55;;;14.20;74.00;;;;;;5067411;28;20120;-44
2022/12/24 08:31:59;;;;;;;0.57;0.50;;;14.20;73.90;;;;;;5069161;28;20049;-49
2022/12/24 08:34:25;;;;;;;0.70;0.60;;;14.20;74.10;;;;;;5066997;28;20048;-55
2022/12/24 08:36:51;;;;;;;0.90;0.57;;;14.20;74.00;;;;;;5068188;28;20035;-53
2022/12/24 08:39:16;;;;;;;0.47;0.43;;;14.20;74.20;;;;;;5065437;28;20029;-55
2022/12/24 08:41:42;;;;;;;0.60;0.50;;;14.20;73.80;;;;;;5066985;28;20049;-56
2022/12/24 08:44:07;;;;;;;0.60;0.60;;;14.20;74.10;;;;;;5067641;28;20115;-58
2022/12/24 08:46:33;;;;;;;0.80;0.70;;;14.20;74.00;;;;;;5067221;28;20048;-58
2022/12/24 08:48:58;;;;;;;0.73;0.50;;;14.20;73.90;;;;;;5068138;28;20037;-59
2022/12/24 08:51:24;;;;;;;1.05;0.52;;;14.20;74.30;;;;;;5066711;28;20048;-38
2022/12/24 08:53:49;;;;;;;1.65;0.70;;;14.20;74.40;;;;;;5068845;28;20515;-53
2022/12/24 08:56:15;;;;;;;0.68;0.40;;;14.20;74.30;;;;;;5065449;28;20032;-61
2022/12/24 08:58:41;;;;;;;0.65;0.30;;;14.20;73.80;;;;;;5066650;28;20460;-56
2022/12/24 09:01:14;;;;;;;0.68;0.50;;;14.20;74.20;;;;;;5066389;28;20135;-58
2022/12/24 09:03:40;;;;;;;0.80;0.50;;;14.20;74.10;;;;;;5063517;28;20036;-54
2022/12/24 09:06:06;;;;;;;0.60;0.60;;;14.20;74.10;;;;;;5066977;28;20602;-58
2022/12/24 09:08:32;;;;;;;1.00;0.60;;;14.20;73.70;;;;;;5067674;28;20055;-63
2022/12/24 09:11:09;;;;;;;0.90;0.55;;;14.20;74.40;;;;;;5067295;28;20119;-60
2022/12/24 09:13:34;;;;;;;1.27;0.60;;;14.20;74.70;;;;;;5064090;28;20044;-59
2022/12/24 09:16:00;;;;;;;1.08;0.70;;;14.40;74.10;;;;;;5067520;28;20037;-58
2022/12/24 09:18:26;;;;;;;0.60;0.50;;;14.50;73.60;;;;;;5069096;28;20061;-56
2022/12/24 09:20:58;;;;;;;0.60;0.50;;;14.60;73.10;;;;;;5066868;28;20045;-58
2022/12/24 09:23:23;;;;;;;1.02;0.57;;;14.50;73.30;;;;;;5068015;28;20646;-55
2022/12/24 09:25:49;;;;;;;0.47;0.47;;;14.40;74.00;;;;;;5066227;28;20036;-60
2022/12/24 09:28:14;;;;;;;1.10;0.50;;;14.30;74.70;;;;;;5066822;28;20052;-61
2022/12/24 09:30:40;;;;;;;1.58;0.60;;;14.30;74.20;;;;;;5066133;28;20094;-61
2022/12/24 09:33:06;;;;;;;1.35;0.50;;;14.40;73.90;;;;;;5066737;28;20520;-23
2022/12/24 09:35:31;;;;;;;1.58;0.55;;;14.60;73.80;;;;;;5066376;28;20046;-51
2022/12/24 09:38:03;;;;;;;0.95;0.50;;;14.40;73.80;;;;;;5066629;28;20055;-61
2022/12/24 09:40:34;;;;;;;1.02;0.60;;;14.40;73.90;;;;;;5065417;28;20067;-58
2022/12/24 09:43:00;;;;;;;0.73;0.50;;;14.40;74.00;;;;;;5081781;28;20057;-56
2022/12/24 09:45:29;;;;;;;0.90;0.70;;;14.50;74.00;;;;;;5066099;28;20043;-62
2022/12/24 09:48:03;;;;;;;0.88;0.70;;;14.50;74.30;;;;;;5081038;28;20464;-61
2022/12/24 09:50:43;;;;;;;0.47;0.30;;;14.40;74.40;;;;;;5064633;28;20044;-59
2022/12/24 09:53:17;;;;;;;1.45;0.38;;;14.40;74.40;;;;;;5066842;28;20040;-51
2022/12/24 09:55:50;;;;;;;0.98;0.75;;;14.40;75.50;;;;;;5085997;28;20123;-60
2022/12/24 09:58:22;;;;;;;0.95;0.65;;;14.40;74.80;;;;;;5069185;28;20032;-59
2022/12/24 10:00:48;;;;;;;0.75;0.60;;;14.50;74.80;;;;;;5064439;28;20089;-52
2022/12/24 10:03:14;;;;;;;2.75;0.57;;;14.50;74.10;;;;;;5068746;28;20036;-59
2022/12/24 10:05:43;;;;;;;0.90;0.45;;;14.50;74.20;;;;;;5085931;28;20040;-59
2022/12/24 10:08:11;;;;;;;1.67;0.68;;;14.50;74.20;;;;;;5084019;28;20071;-59
2022/12/24 10:10:54;;;;;;;0.68;0.40;;;14.40;74.40;;;;;;5070384;28;20093;-50
2022/12/24 10:13:33;;;;;;;1.42;0.60;;;14.40;74.60;;;;;;5079668;28;20059;-58
2022/12/24 10:16:11;;;;;;;1.90;0.50;;;14.40;74.70;;;;;;5082768;28;20029;-52
2022/12/24 10:18:52;;;;;;;2.13;0.60;;;14.40;74.90;;;;;;5079720;28;20404;-57
2022/12/24 10:21:40;;;;;;;0.98;0.60;;;14.30;74.90;;;;;;5081536;28;20489;-52
2022/12/24 10:24:14;;;;;;;1.30;0.68;;;14.30;74.90;;;;;;5067437;28;20453;-55
2022/12/24 10:26:44;;;;;;;2.63;0.80;;;14.30;75.00;;;;;;5069203;28;20048;-63
2022/12/24 10:29:22;;;;;;;1.63;0.95;;;14.30;75.00;;;;;;5070009;28;20087;-60
2022/12/24 10:32:06;;;;;;;0.55;0.50;;;14.30;75.00;;;;;;5067324;28;20107;-51
2022/12/24 10:34:41;;;;;;;0.70;0.40;;;14.30;75.00;;;;;;5068223;28;20040;-48
2022/12/24 10:37:13;;;;;;;1.23;0.68;;;14.30;74.90;;;;;;5070222;28;20521;-53
2022/12/24 10:39:39;;;;;;;0.40;0.40;;;14.30;74.80;;;;;;5067783;28;20047;-57
2022/12/24 10:42:05;;;;;;;0.82;0.50;;;14.30;74.40;;;;;;5070360;28;20041;-61
2022/12/24 10:44:31;;;;;;;0.70;0.30;;;14.30;74.90;;;;;;5068150;28;20362;-61
2022/12/24 10:46:56;;;;;;;0.93;0.60;;;14.30;74.50;;;;;;5084553;28;20036;-61
2022/12/24 10:49:31;;;;;;;2.00;0.60;;;14.30;74.80;;;;;;5065389;28;20575;-53
2022/12/24 10:52:01;;;;;;;0.60;0.40;;;14.30;74.90;;;;;;5071764;28;20052;-53
2022/12/24 10:54:27;;;;;;;0.80;0.60;;;14.50;74.50;;;;;;5063352;28;20498;-54
2022/12/24 10:57:01;;;;;;;1.40;0.57;;;14.40;74.70;;;;;;5087836;28;20303;-61
2022/12/24 10:59:28;;;;;;;1.00;0.30;;;14.40;74.80;;;;;;5077373;28;20131;-61
2022/12/24 11:01:55;;;;;;;0.65;0.63;;;14.40;74.90;;;;;;5062693;28;20028;-49
2022/12/24 11:04:25;;;;;;;0.90;0.65;;;14.40;75.00;;;;;;5068937;28;20043;-62
2022/12/24 11:06:59;;;;;;;0.88;0.60;;;14.40;75.00;;;;;;5066070;28;20043;-44
2022/12/24 11:09:27;;;;;;;0.95;0.70;;;14.40;74.80;;;;;;5052347;28;20060;-59
2022/12/24 11:11:54;;;;;;;0.70;0.47;;;14.50;74.30;;;;;;5054576;28;20063;-54
2022/12/24 11:14:19;;;;;;;1.15;0.60;;;14.50;74.60;;;;;;5044073;28;20057;-62
2022/12/24 11:17:03;;;;;;;0.70;0.70;;;14.50;74.80;;;;;;5048321;28;20045;-48
2022/12/24 11:19:38;;;;;;;0.63;0.40;;;14.50;74.40;;;;;;5057852;28;20048;-62
2022/12/24 11:22:07;;;;;;;0.95;0.60;;;14.50;74.30;;;;;;5045626;28;20079;-57
2022/12/24 11:24:34;;;;;;;0.88;0.73;;;14.40;74.40;;;;;;5040813;28;24862;-47
2022/12/24 11:27:29;;;;;;;1.17;0.73;;;14.50;74.50;;;;;;5063017;28;20051;-54
2022/12/24 11:30:13;;;;;;;1.38;0.57;;;14.50;74.50;;;;;;5045839;28;20076;-47
2022/12/24 11:32:42;;;;;;;0.68;0.32;;;14.50;74.80;;;;;;5048589;28;20059;-55
2022/12/24 11:35:21;;;;;;;1.45;0.50;;;14.50;74.80;;;;;;5067821;28;20068;-60
2022/12/24 11:37:59;;;;;;;1.13;0.60;;;14.60;74.40;;;;;;5079281;28;20093;-60
2022/12/24 11:40:27;;;;;;;2.00;0.77;;;14.60;74.70;;;;;;5064261;28;20092;-61
2022/12/24 11:42:53;;;;;;;0.95;0.40;;;14.50;74.70;;;;;;5069065;28;20115;-56
2022/12/24 11:45:23;;;;;;;0.77;0.47;;;14.50;74.50;;;;;;5050539;28;20119;-55
2022/12/24 11:47:49;;;;;;;0.73;0.68;;;14.60;75.50;;;;;;5066776;28;20045;-56
2022/12/24 11:50:31;;;;;;;0.73;0.50;;;14.60;74.20;;;;;;5066201;28;20033;-28
2022/12/24 11:53:02;;;;;;;0.93;0.57;;;14.50;74.40;;;;;;5066725;28;20505;-54
2022/12/24 11:55:47;;;;;;;0.85;0.40;;;14.50;74.70;;;;;;5064661;28;20131;-60
2022/12/24 11:58:22;;;;;;;0.80;0.40;;;14.60;74.50;;;;;;5064735;28;20497;-48
2022/12/24 12:00:48;;;;;;;1.10;0.60;;;14.60;74.70;;;;;;5068713;28;20040;-41
2022/12/24 12:03:29;;;;;;;0.43;0.40;;;14.60;74.80;;;;;;5067829;28;20059;-54
2022/12/24 12:05:55;;;;;;;2.10;0.60;;;14.60;74.80;;;;;;5065559;28;20815;-58
2022/12/24 12:08:21;;;;;;;0.73;0.40;;;14.50;74.00;;;;;;5083403;28;20033;-50
2022/12/24 12:10:46;;;;;;;0.80;0.40;;;14.50;74.50;;;;;;5064181;28;20058;-46
2022/12/24 12:13:23;;;;;;;0.63;0.43;;;14.50;74.60;;;;;;5083277;28;20048;-46
2022/12/24 12:16:22;;;;;;;1.83;0.40;;;14.50;74.70;;;;;;5081286;28;20028;-46
2022/12/24 12:19:07;;;;;;;1.50;0.32;;;14.50;75.00;;;;;;5032219;28;20107;-45
2022/12/24 12:21:37;;;;;;;0.60;0.40;;;14.50;74.80;;;;;;4720980;28;10000512;-46
2022/12/24 12:24:11;;;;;;;1.95;0.35;;;14.50;74.80;;;;;;5059629;28;20068;-45
2022/12/24 12:26:37;;;;;;;1.25;0.60;;;14.70;74.40;;;;;;5092481;28;20149;-46
2022/12/24 12:29:06;;;;;;;0.93;0.40;;;14.80;74.00;;;;;;5056890;28;20048;-46
2022/12/24 12:31:48;;;;;;;0.50;0.40;;;14.80;73.90;;;;;;5061627;28;20386;-47
2022/12/24 12:34:39;;;;;;;0.75;0.45;;;14.80;74.10;;;;;;5059377;28;20619;-45
2022/12/24 12:37:09;;;;;;;0.98;0.70;;;14.80;74.10;;;;;;5062736;28;20498;-47
2022/12/24 12:39:35;;;;;;;0.93;0.43;;;14.80;74.20;;;;;;5076236;28;20045;-47
2022/12/24 12:42:23;;;;;;;1.25;0.80;;;14.80;74.10;;;;;;5063614;28;20082;-47
2022/12/24 12:45:29;;;;;;;1.02;0.40;;;14.80;74.00;;;;;;5059358;28;20048;-46
2022/12/24 12:48:17;;;;;;;0.65;0.43;;;15.00;73.40;;;;;;5030876;28;20109;-47
2022/12/24 12:51:04;;;;;;;0.68;0.22;;;14.90;73.50;;;;;;5046493;28;20568;-46
2022/12/24 12:53:39;;;;;;;0.90;0.38;;;15.00;73.40;;;;;;5058205;28;20052;-46
2022/12/24 12:56:23;;;;;;;0.80;0.50;;;15.10;73.10;;;;;;5057507;28;20025;-49
2022/12/24 12:59:03;;;;;;;0.70;0.60;;;14.90;73.40;;;;;;5051144;28;20041;-57
2022/12/24 13:01:44;;;;;;;0.60;0.32;;;14.90;73.80;;;;;;5076962;28;20498;-59
2022/12/24 13:04:32;;;;;;;1.05;0.60;;;14.90;73.70;;;;;;5079007;28;20036;-58